sensor_id;sensor_type;location;lat;lon;timestamp;P1;durP1;ratioP1;P2;durP2;ratioP2
1344;SDS011;15375;48.540;9.268;2022-09-03T00:04:59;2.10;;;2.00;;
1344;SDS011;15375;48.540;9.268;2022-09-03T00:09:59;3.63;;;2.07;;
1344;SDS011;15375;48.540;9.268;2022-09-03T00:12:31;3.13;;;2.30;;
1344;SDS011;15375;48.540;9.268;2022-09-03T00:15:03;2.47;;;2.20;;
1344;SDS011;15375;48.540;9.268;2022-09-03T00:17:36;3.53;;;2.30;;
1344;SDS011;15375;48.540;9.268;2022-09-03T00:22:41;4.10;;;2.70;;
1344;SDS011;15375;48.540;9.268;2022-09-03T00:25:12;3.17;;;2.53;;
1344;SDS011;15375;48.540;9.268;2022-09-03T00:27:44;3.43;;;2.70;;
1344;SDS011;15375;48.540;9.268;2022-09-03T00:30:15;2.60;;;2.40;;
1344;SDS011;15375;48.540;9.268;2022-09-03T00:35:17;2.67;;;2.47;;
1344;SDS011;15375;48.540;9.268;2022-09-03T00:37:50;2.90;;;2.53;;
1344;SDS011;15375;48.540;9.268;2022-09-03T00:40:24;2.80;;;2.60;;
1344;SDS011;15375;48.540;9.268;2022-09-03T00:43:03;2.50;;;2.30;;
1344;SDS011;15375;48.540;9.268;2022-09-03T00:48:32;2.50;;;2.30;;
1344;SDS011;15375;48.540;9.268;2022-09-03T00:54:24;3.33;;;2.17;;
1344;SDS011;15375;48.540;9.268;2022-09-03T01:13:49;2.70;;;2.43;;
1344;SDS011;15375;48.540;9.268;2022-09-03T01:16:49;2.63;;;2.10;;
1344;SDS011;15375;48.540;9.268;2022-09-03T01:30:19;2.80;;;2.60;;
1344;SDS011;15375;48.540;9.268;2022-09-03T01:33:04;2.60;;;2.20;;
1344;SDS011;15375;48.540;9.268;2022-09-03T01:47:11;2.80;;;2.60;;
1344;SDS011;15375;48.540;9.268;2022-09-03T01:53:07;2.70;;;2.50;;
1344;SDS011;15375;48.540;9.268;2022-09-03T01:55:51;2.50;;;2.30;;
1344;SDS011;15375;48.540;9.268;2022-09-03T01:58:43;2.93;;;2.73;;
1344;SDS011;15375;48.540;9.268;2022-09-03T02:01:19;2.80;;;2.60;;
1344;SDS011;15375;48.540;9.268;2022-09-03T02:03:50;2.33;;;2.23;;
1344;SDS011;15375;48.540;9.268;2022-09-03T02:06:16;2.73;;;2.53;;
1344;SDS011;15375;48.540;9.268;2022-09-03T02:08:44;2.63;;;2.47;;
1344;SDS011;15375;48.540;9.268;2022-09-03T02:11:10;2.50;;;2.30;;
1344;SDS011;15375;48.540;9.268;2022-09-03T02:13:49;3.43;;;3.13;;
1344;SDS011;15375;48.540;9.268;2022-09-03T02:16:20;2.77;;;2.57;;
1344;SDS011;15375;48.540;9.268;2022-09-03T02:18:52;3.00;;;2.70;;
1344;SDS011;15375;48.540;9.268;2022-09-03T02:21:22;3.57;;;3.10;;
1344;SDS011;15375;48.540;9.268;2022-09-03T02:23:49;3.50;;;2.60;;
1344;SDS011;15375;48.540;9.268;2022-09-03T02:26:17;3.10;;;2.87;;
1344;SDS011;15375;48.540;9.268;2022-09-03T02:28:46;3.00;;;2.80;;
1344;SDS011;15375;48.540;9.268;2022-09-03T02:31:12;2.40;;;2.30;;
1344;SDS011;15375;48.540;9.268;2022-09-03T02:33:38;3.90;;;3.10;;
1344;SDS011;15375;48.540;9.268;2022-09-03T02:36:08;4.67;;;2.97;;
1344;SDS011;15375;48.540;9.268;2022-09-03T02:38:35;3.23;;;2.97;;
1344;SDS011;15375;48.540;9.268;2022-09-03T02:41:01;4.03;;;2.83;;
1344;SDS011;15375;48.540;9.268;2022-09-03T02:43:30;3.37;;;2.97;;
1344;SDS011;15375;48.540;9.268;2022-09-03T02:46:03;3.20;;;2.90;;
1344;SDS011;15375;48.540;9.268;2022-09-03T02:48:32;3.00;;;2.80;;
1344;SDS011;15375;48.540;9.268;2022-09-03T02:50:57;2.57;;;2.37;;
1344;SDS011;15375;48.540;9.268;2022-09-03T02:53:23;2.80;;;2.60;;
1344;SDS011;15375;48.540;9.268;2022-09-03T02:55:49;3.90;;;2.90;;
1344;SDS011;15375;48.540;9.268;2022-09-03T02:58:14;3.20;;;2.90;;
1344;SDS011;15375;48.540;9.268;2022-09-03T03:00:40;6.73;;;2.97;;
1344;SDS011;15375;48.540;9.268;2022-09-03T03:03:05;3.20;;;3.00;;
1344;SDS011;15375;48.540;9.268;2022-09-03T03:08:08;3.50;;;3.20;;
1344;SDS011;15375;48.540;9.268;2022-09-03T03:10:33;3.50;;;3.07;;
1344;SDS011;15375;48.540;9.268;2022-09-03T03:12:59;3.00;;;2.80;;
1344;SDS011;15375;48.540;9.268;2022-09-03T03:15:25;3.13;;;2.93;;
1344;SDS011;15375;48.540;9.268;2022-09-03T03:17:54;3.00;;;2.80;;
1344;SDS011;15375;48.540;9.268;2022-09-03T03:20:20;3.27;;;3.07;;
1344;SDS011;15375;48.540;9.268;2022-09-03T03:22:45;3.27;;;3.07;;
1344;SDS011;15375;48.540;9.268;2022-09-03T03:25:11;2.73;;;2.57;;
1344;SDS011;15375;48.540;9.268;2022-09-03T03:27:36;3.20;;;3.00;;
1344;SDS011;15375;48.540;9.268;2022-09-03T03:30:06;3.17;;;2.87;;
1344;SDS011;15375;48.540;9.268;2022-09-03T03:32:34;5.50;;;2.83;;
1344;SDS011;15375;48.540;9.268;2022-09-03T03:35:00;3.93;;;3.20;;
1344;SDS011;15375;48.540;9.268;2022-09-03T03:37:26;2.80;;;2.60;;
1344;SDS011;15375;48.540;9.268;2022-09-03T03:39:51;3.27;;;3.07;;
1344;SDS011;15375;48.540;9.268;2022-09-03T03:42:16;3.67;;;3.37;;
1344;SDS011;15375;48.540;9.268;2022-09-03T03:44:42;3.53;;;3.23;;
1344;SDS011;15375;48.540;9.268;2022-09-03T03:47:08;3.30;;;3.00;;
1344;SDS011;15375;48.540;9.268;2022-09-03T03:49:33;3.63;;;3.17;;
1344;SDS011;15375;48.540;9.268;2022-09-03T03:51:58;3.50;;;3.30;;
1344;SDS011;15375;48.540;9.268;2022-09-03T03:54:24;3.20;;;3.00;;
1344;SDS011;15375;48.540;9.268;2022-09-03T03:56:49;3.30;;;3.10;;
1344;SDS011;15375;48.540;9.268;2022-09-03T03:59:15;3.50;;;2.90;;
1344;SDS011;15375;48.540;9.268;2022-09-03T04:01:40;3.13;;;2.93;;
1344;SDS011;15375;48.540;9.268;2022-09-03T04:04:05;3.30;;;3.00;;
1344;SDS011;15375;48.540;9.268;2022-09-03T04:06:31;3.37;;;3.17;;
1344;SDS011;15375;48.540;9.268;2022-09-03T04:08:56;6.33;;;2.80;;
1344;SDS011;15375;48.540;9.268;2022-09-03T04:11:22;6.30;;;3.23;;
1344;SDS011;15375;48.540;9.268;2022-09-03T04:13:49;2.70;;;2.50;;
1344;SDS011;15375;48.540;9.268;2022-09-03T04:16:22;2.90;;;2.70;;
1344;SDS011;15375;48.540;9.268;2022-09-03T04:18:52;3.50;;;3.20;;
1344;SDS011;15375;48.540;9.268;2022-09-03T04:21:19;3.23;;;3.03;;
1344;SDS011;15375;48.540;9.268;2022-09-03T04:23:47;3.50;;;3.20;;
1344;SDS011;15375;48.540;9.268;2022-09-03T04:26:15;3.43;;;3.23;;
1344;SDS011;15375;48.540;9.268;2022-09-03T04:28:42;3.50;;;3.27;;
1344;SDS011;15375;48.540;9.268;2022-09-03T04:31:09;3.60;;;3.30;;
1344;SDS011;15375;48.540;9.268;2022-09-03T04:33:36;3.60;;;3.40;;
1344;SDS011;15375;48.540;9.268;2022-09-03T04:36:03;3.80;;;3.50;;
1344;SDS011;15375;48.540;9.268;2022-09-03T04:38:39;2.87;;;2.67;;
1344;SDS011;15375;48.540;9.268;2022-09-03T04:41:08;5.20;;;3.13;;
1344;SDS011;15375;48.540;9.268;2022-09-03T04:43:36;4.03;;;3.63;;
1344;SDS011;15375;48.540;9.268;2022-09-03T04:46:03;3.97;;;3.67;;
1344;SDS011;15375;48.540;9.268;2022-09-03T04:48:31;3.30;;;3.00;;
1344;SDS011;15375;48.540;9.268;2022-09-03T04:51:05;3.73;;;3.40;;
1344;SDS011;15375;48.540;9.268;2022-09-03T04:53:39;3.40;;;3.07;;
1344;SDS011;15375;48.540;9.268;2022-09-03T04:58:39;7.03;;;3.50;;
1344;SDS011;15375;48.540;9.268;2022-09-03T05:01:06;3.63;;;3.33;;
1344;SDS011;15375;48.540;9.268;2022-09-03T05:03:36;3.23;;;3.03;;
1344;SDS011;15375;48.540;9.268;2022-09-03T05:06:02;3.60;;;3.37;;
1344;SDS011;15375;48.540;9.268;2022-09-03T05:08:29;4.30;;;4.00;;
1344;SDS011;15375;48.540;9.268;2022-09-03T05:10:58;4.33;;;3.20;;
1344;SDS011;15375;48.540;9.268;2022-09-03T05:13:25;4.13;;;3.70;;
1344;SDS011;15375;48.540;9.268;2022-09-03T05:15:50;4.40;;;3.57;;
1344;SDS011;15375;48.540;9.268;2022-09-03T05:18:16;4.27;;;3.70;;
1344;SDS011;15375;48.540;9.268;2022-09-03T05:20:42;5.70;;;3.80;;
1344;SDS011;15375;48.540;9.268;2022-09-03T05:23:07;3.70;;;3.40;;
1344;SDS011;15375;48.540;9.268;2022-09-03T05:25:33;4.10;;;3.67;;
1344;SDS011;15375;48.540;9.268;2022-09-03T05:27:58;4.93;;;4.53;;
1344;SDS011;15375;48.540;9.268;2022-09-03T05:30:24;4.07;;;3.77;;
1344;SDS011;15375;48.540;9.268;2022-09-03T05:32:50;3.93;;;3.63;;
1344;SDS011;15375;48.540;9.268;2022-09-03T05:35:16;4.33;;;3.93;;
1344;SDS011;15375;48.540;9.268;2022-09-03T05:37:41;3.93;;;3.63;;
1344;SDS011;15375;48.540;9.268;2022-09-03T05:40:07;3.53;;;3.23;;
1344;SDS011;15375;48.540;9.268;2022-09-03T05:42:35;5.63;;;3.50;;
1344;SDS011;15375;48.540;9.268;2022-09-03T05:45:06;3.70;;;3.40;;
1344;SDS011;15375;48.540;9.268;2022-09-03T05:47:35;3.73;;;3.43;;
1344;SDS011;15375;48.540;9.268;2022-09-03T05:50:01;4.30;;;4.00;;
1344;SDS011;15375;48.540;9.268;2022-09-03T05:52:27;3.40;;;3.10;;
1344;SDS011;15375;48.540;9.268;2022-09-03T05:54:53;3.93;;;3.53;;
1344;SDS011;15375;48.540;9.268;2022-09-03T05:57:18;3.67;;;3.17;;
1344;SDS011;15375;48.540;9.268;2022-09-03T05:59:43;2.90;;;2.70;;
1344;SDS011;15375;48.540;9.268;2022-09-03T06:02:09;3.67;;;3.40;;
1344;SDS011;15375;48.540;9.268;2022-09-03T06:04:34;3.90;;;3.60;;
1344;SDS011;15375;48.540;9.268;2022-09-03T06:06:59;4.30;;;3.87;;
1344;SDS011;15375;48.540;9.268;2022-09-03T06:09:25;3.83;;;3.37;;
1344;SDS011;15375;48.540;9.268;2022-09-03T06:11:50;5.37;;;3.73;;
1344;SDS011;15375;48.540;9.268;2022-09-03T06:14:17;3.90;;;3.10;;
1344;SDS011;15375;48.540;9.268;2022-09-03T06:16:44;3.67;;;3.27;;
1344;SDS011;15375;48.540;9.268;2022-09-03T06:19:14;5.90;;;4.17;;
1344;SDS011;15375;48.540;9.268;2022-09-03T06:21:41;4.00;;;3.70;;
1344;SDS011;15375;48.540;9.268;2022-09-03T06:24:09;3.73;;;3.43;;
1344;SDS011;15375;48.540;9.268;2022-09-03T06:26:36;3.67;;;3.37;;
1344;SDS011;15375;48.540;9.268;2022-09-03T06:29:01;3.40;;;3.20;;
1344;SDS011;15375;48.540;9.268;2022-09-03T06:31:27;4.03;;;3.57;;
1344;SDS011;15375;48.540;9.268;2022-09-03T06:33:53;4.67;;;4.10;;
1344;SDS011;15375;48.540;9.268;2022-09-03T06:36:19;5.50;;;3.80;;
1344;SDS011;15375;48.540;9.268;2022-09-03T06:38:46;5.50;;;3.47;;
1344;SDS011;15375;48.540;9.268;2022-09-03T06:41:16;4.20;;;3.80;;
1344;SDS011;15375;48.540;9.268;2022-09-03T06:43:45;3.30;;;2.90;;
1344;SDS011;15375;48.540;9.268;2022-09-03T06:46:19;3.97;;;3.60;;
1344;SDS011;15375;48.540;9.268;2022-09-03T06:48:47;4.27;;;3.90;;
1344;SDS011;15375;48.540;9.268;2022-09-03T06:51:16;4.23;;;3.87;;
1344;SDS011;15375;48.540;9.268;2022-09-03T06:53:52;6.63;;;4.03;;
1344;SDS011;15375;48.540;9.268;2022-09-03T06:56:23;3.83;;;3.53;;
1344;SDS011;15375;48.540;9.268;2022-09-03T06:58:52;3.30;;;3.00;;
1344;SDS011;15375;48.540;9.268;2022-09-03T07:01:20;4.90;;;4.50;;
1344;SDS011;15375;48.540;9.268;2022-09-03T07:03:51;4.87;;;4.40;;
1344;SDS011;15375;48.540;9.268;2022-09-03T07:06:20;4.03;;;3.73;;
1344;SDS011;15375;48.540;9.268;2022-09-03T07:08:47;3.97;;;3.63;;
1344;SDS011;15375;48.540;9.268;2022-09-03T07:11:14;5.07;;;4.03;;
1344;SDS011;15375;48.540;9.268;2022-09-03T07:13:44;4.07;;;3.77;;
1344;SDS011;15375;48.540;9.268;2022-09-03T07:18:42;3.63;;;3.33;;
1344;SDS011;15375;48.540;9.268;2022-09-03T07:21:11;5.60;;;5.10;;
1344;SDS011;15375;48.540;9.268;2022-09-03T07:23:39;8.03;;;6.57;;
1344;SDS011;15375;48.540;9.268;2022-09-03T07:26:05;8.37;;;7.50;;
1344;SDS011;15375;48.540;9.268;2022-09-03T07:28:36;9.63;;;7.60;;
1344;SDS011;15375;48.540;9.268;2022-09-03T07:31:10;6.27;;;5.60;;
1344;SDS011;15375;48.540;9.268;2022-09-03T07:33:37;8.87;;;7.20;;
1344;SDS011;15375;48.540;9.268;2022-09-03T07:36:07;9.60;;;8.33;;
1344;SDS011;15375;48.540;9.268;2022-09-03T07:38:38;6.47;;;5.87;;
1344;SDS011;15375;48.540;9.268;2022-09-03T07:41:05;4.90;;;4.50;;
1344;SDS011;15375;48.540;9.268;2022-09-03T07:43:33;5.70;;;5.20;;
1344;SDS011;15375;48.540;9.268;2022-09-03T07:46:04;7.33;;;5.00;;
1344;SDS011;15375;48.540;9.268;2022-09-03T07:48:31;8.43;;;5.83;;
1344;SDS011;15375;48.540;9.268;2022-09-03T07:51:00;6.73;;;6.23;;
1344;SDS011;15375;48.540;9.268;2022-09-03T07:53:26;6.73;;;6.03;;
1344;SDS011;15375;48.540;9.268;2022-09-03T07:55:53;7.00;;;6.50;;
1344;SDS011;15375;48.540;9.268;2022-09-03T07:58:20;5.50;;;5.10;;
1344;SDS011;15375;48.540;9.268;2022-09-03T08:00:47;6.77;;;6.07;;
1344;SDS011;15375;48.540;9.268;2022-09-03T08:03:13;11.67;;;10.10;;
1344;SDS011;15375;48.540;9.268;2022-09-03T08:05:38;5.37;;;4.93;;
1344;SDS011;15375;48.540;9.268;2022-09-03T08:08:04;7.90;;;4.93;;
1344;SDS011;15375;48.540;9.268;2022-09-03T08:10:30;8.53;;;7.70;;
1344;SDS011;15375;48.540;9.268;2022-09-03T08:12:59;6.23;;;5.63;;
1344;SDS011;15375;48.540;9.268;2022-09-03T08:15:25;12.33;;;8.47;;
1344;SDS011;15375;48.540;9.268;2022-09-03T08:17:50;6.50;;;4.70;;
1344;SDS011;15375;48.540;9.268;2022-09-03T08:20:16;7.30;;;6.60;;
1344;SDS011;15375;48.540;9.268;2022-09-03T08:22:42;6.73;;;5.87;;
1344;SDS011;15375;48.540;9.268;2022-09-03T08:25:07;16.47;;;12.40;;
1344;SDS011;15375;48.540;9.268;2022-09-03T08:27:33;16.80;;;12.73;;
1344;SDS011;15375;48.540;9.268;2022-09-03T08:29:59;4.33;;;3.97;;
1344;SDS011;15375;48.540;9.268;2022-09-03T08:32:24;12.43;;;11.20;;
1344;SDS011;15375;48.540;9.268;2022-09-03T08:34:49;13.77;;;11.17;;
1344;SDS011;15375;48.540;9.268;2022-09-03T08:37:16;5.80;;;4.70;;
1344;SDS011;15375;48.540;9.268;2022-09-03T08:39:42;10.10;;;9.20;;
1344;SDS011;15375;48.540;9.268;2022-09-03T08:42:12;4.83;;;3.97;;
1344;SDS011;15375;48.540;9.268;2022-09-03T08:44:55;4.63;;;3.93;;
1344;SDS011;15375;48.540;9.268;2022-09-03T08:50:10;4.63;;;4.27;;
1344;SDS011;15375;48.540;9.268;2022-09-03T08:52:47;4.60;;;4.27;;
1344;SDS011;15375;48.540;9.268;2022-09-03T08:55:22;4.50;;;4.10;;
1344;SDS011;15375;48.540;9.268;2022-09-03T08:58:03;4.30;;;3.97;;
1344;SDS011;15375;48.540;9.268;2022-09-03T09:06:07;5.43;;;4.90;;
1344;SDS011;15375;48.540;9.268;2022-09-03T09:08:56;5.07;;;4.67;;
1344;SDS011;15375;48.540;9.268;2022-09-03T09:14:29;4.03;;;3.73;;
1344;SDS011;15375;48.540;9.268;2022-09-03T09:25:48;4.33;;;3.77;;
1344;SDS011;15375;48.540;9.268;2022-09-03T09:28:19;4.77;;;4.40;;
1344;SDS011;15375;48.540;9.268;2022-09-03T09:30:50;3.80;;;3.50;;
1344;SDS011;15375;48.540;9.268;2022-09-03T09:33:18;3.83;;;3.23;;
1344;SDS011;15375;48.540;9.268;2022-09-03T09:35:45;3.57;;;3.27;;
1344;SDS011;15375;48.540;9.268;2022-09-03T09:38:11;3.10;;;2.90;;
1344;SDS011;15375;48.540;9.268;2022-09-03T09:40:38;3.30;;;3.03;;
1344;SDS011;15375;48.540;9.268;2022-09-03T09:43:06;3.20;;;2.90;;
1344;SDS011;15375;48.540;9.268;2022-09-03T09:45:40;3.63;;;3.43;;
1344;SDS011;15375;48.540;9.268;2022-09-03T09:51:01;3.80;;;3.27;;
1344;SDS011;15375;48.540;9.268;2022-09-03T09:53:28;3.73;;;3.43;;
1344;SDS011;15375;48.540;9.268;2022-09-03T09:55:55;3.37;;;3.07;;
1344;SDS011;15375;48.540;9.268;2022-09-03T09:58:23;3.00;;;2.73;;
1344;SDS011;15375;48.540;9.268;2022-09-03T10:01:02;3.13;;;2.93;;
1344;SDS011;15375;48.540;9.268;2022-09-03T10:03:31;3.23;;;2.87;;
1344;SDS011;15375;48.540;9.268;2022-09-03T10:06:04;3.83;;;3.40;;
1344;SDS011;15375;48.540;9.268;2022-09-03T10:08:50;3.50;;;3.30;;
1344;SDS011;15375;48.540;9.268;2022-09-03T10:11:16;4.00;;;3.40;;
1344;SDS011;15375;48.540;9.268;2022-09-03T10:13:44;3.70;;;3.17;;
1344;SDS011;15375;48.540;9.268;2022-09-03T10:16:23;3.47;;;3.17;;
1344;SDS011;15375;48.540;9.268;2022-09-03T10:19:01;3.97;;;3.67;;
1344;SDS011;15375;48.540;9.268;2022-09-03T10:24:32;4.30;;;4.00;;
1344;SDS011;15375;48.540;9.268;2022-09-03T10:27:06;4.47;;;4.07;;
1344;SDS011;15375;48.540;9.268;2022-09-03T10:29:36;3.47;;;3.17;;
1344;SDS011;15375;48.540;9.268;2022-09-03T10:34:37;3.57;;;3.27;;
1344;SDS011;15375;48.540;9.268;2022-09-03T10:37:25;4.60;;;3.53;;
1344;SDS011;15375;48.540;9.268;2022-09-03T10:42:44;3.77;;;3.50;;
1344;SDS011;15375;48.540;9.268;2022-09-03T10:45:28;3.27;;;3.07;;
1344;SDS011;15375;48.540;9.268;2022-09-03T10:51:00;5.70;;;3.53;;
1344;SDS011;15375;48.540;9.268;2022-09-03T10:53:52;3.77;;;3.47;;
1344;SDS011;15375;48.540;9.268;2022-09-03T10:57:11;3.43;;;3.23;;
1344;SDS011;15375;48.540;9.268;2022-09-03T11:05:39;4.20;;;3.87;;
1344;SDS011;15375;48.540;9.268;2022-09-03T11:08:11;4.50;;;4.20;;
1344;SDS011;15375;48.540;9.268;2022-09-03T11:10:47;3.87;;;3.57;;
1344;SDS011;15375;48.540;9.268;2022-09-03T11:14:21;4.20;;;3.50;;
1344;SDS011;15375;48.540;9.268;2022-09-03T11:16:27;4.60;;;3.97;;
1344;SDS011;15375;48.540;9.268;2022-09-03T11:19:05;3.57;;;3.27;;
1344;SDS011;15375;48.540;9.268;2022-09-03T11:21:35;3.60;;;3.30;;
1344;SDS011;15375;48.540;9.268;2022-09-03T11:24:08;5.70;;;3.80;;
1344;SDS011;15375;48.540;9.268;2022-09-03T11:26:39;3.80;;;3.50;;
1344;SDS011;15375;48.540;9.268;2022-09-03T11:29:14;4.47;;;4.10;;
1344;SDS011;15375;48.540;9.268;2022-09-03T11:32:00;4.13;;;3.73;;
1344;SDS011;15375;48.540;9.268;2022-09-03T11:34:43;3.70;;;3.40;;
1344;SDS011;15375;48.540;9.268;2022-09-03T11:37:16;4.73;;;4.33;;
1344;SDS011;15375;48.540;9.268;2022-09-03T11:40:03;4.00;;;3.70;;
1344;SDS011;15375;48.540;9.268;2022-09-03T11:42:37;4.07;;;3.77;;
1344;SDS011;15375;48.540;9.268;2022-09-03T11:45:22;4.20;;;3.90;;
1344;SDS011;15375;48.540;9.268;2022-09-03T11:47:51;4.37;;;3.97;;
1344;SDS011;15375;48.540;9.268;2022-09-03T11:53:06;5.30;;;4.80;;
1344;SDS011;15375;48.540;9.268;2022-09-03T11:55:48;5.43;;;5.03;;
1344;SDS011;15375;48.540;9.268;2022-09-03T11:58:25;2.20;;;2.00;;
1344;SDS011;15375;48.540;9.268;2022-09-03T12:00:54;2.13;;;1.90;;
1344;SDS011;15375;48.540;9.268;2022-09-03T12:03:27;1.80;;;1.70;;
1344;SDS011;15375;48.540;9.268;2022-09-03T12:14:51;3.73;;;1.87;;
1344;SDS011;15375;48.540;9.268;2022-09-03T12:20:12;5.23;;;2.40;;
1344;SDS011;15375;48.540;9.268;2022-09-03T12:22:39;3.17;;;1.77;;
1344;SDS011;15375;48.540;9.268;2022-09-03T12:25:12;3.20;;;1.77;;
1344;SDS011;15375;48.540;9.268;2022-09-03T12:27:40;4.13;;;1.47;;
1344;SDS011;15375;48.540;9.268;2022-09-03T12:30:20;2.00;;;1.60;;
1344;SDS011;15375;48.540;9.268;2022-09-03T12:32:48;3.97;;;2.67;;
1344;SDS011;15375;48.540;9.268;2022-09-03T12:35:17;3.80;;;2.23;;
1344;SDS011;15375;48.540;9.268;2022-09-03T12:37:44;3.10;;;1.43;;
1344;SDS011;15375;48.540;9.268;2022-09-03T12:42:50;2.40;;;1.07;;
1344;SDS011;15375;48.540;9.268;2022-09-03T12:45:21;3.20;;;2.17;;
1344;SDS011;15375;48.540;9.268;2022-09-03T12:47:48;7.50;;;2.30;;
1344;SDS011;15375;48.540;9.268;2022-09-03T12:50:15;4.13;;;2.80;;
1344;SDS011;15375;48.540;9.268;2022-09-03T12:52:42;6.40;;;3.83;;
1344;SDS011;15375;48.540;9.268;2022-09-03T12:58:23;1.73;;;1.63;;
1344;SDS011;15375;48.540;9.268;2022-09-03T13:03:46;3.30;;;2.50;;
1344;SDS011;15375;48.540;9.268;2022-09-03T13:06:14;3.37;;;1.57;;
1344;SDS011;15375;48.540;9.268;2022-09-03T13:08:46;3.17;;;1.83;;
1344;SDS011;15375;48.540;9.268;2022-09-03T13:11:15;2.97;;;1.20;;
1344;SDS011;15375;48.540;9.268;2022-09-03T13:13:51;3.20;;;1.77;;
1344;SDS011;15375;48.540;9.268;2022-09-03T13:29:36;2.93;;;1.83;;
1344;SDS011;15375;48.540;9.268;2022-09-03T13:35:21;5.07;;;2.77;;
1344;SDS011;15375;48.540;9.268;2022-09-03T13:37:55;0.70;;;0.70;;
1344;SDS011;15375;48.540;9.268;2022-09-03T13:40:44;1.10;;;0.90;;
1344;SDS011;15375;48.540;9.268;2022-09-03T13:46:02;1.00;;;0.87;;
1344;SDS011;15375;48.540;9.268;2022-09-03T13:51:29;1.30;;;1.20;;
1344;SDS011;15375;48.540;9.268;2022-09-03T13:54:03;1.50;;;1.40;;
1344;SDS011;15375;48.540;9.268;2022-09-03T13:59:26;0.93;;;0.87;;
1344;SDS011;15375;48.540;9.268;2022-09-03T14:04:54;1.20;;;0.70;;
1344;SDS011;15375;48.540;9.268;2022-09-03T14:07:33;1.73;;;1.63;;
1344;SDS011;15375;48.540;9.268;2022-09-03T14:10:22;3.67;;;2.77;;
1344;SDS011;15375;48.540;9.268;2022-09-03T14:13:03;1.60;;;1.50;;
1344;SDS011;15375;48.540;9.268;2022-09-03T14:15:35;2.40;;;1.80;;
1344;SDS011;15375;48.540;9.268;2022-09-03T14:21:42;1.10;;;0.93;;
1344;SDS011;15375;48.540;9.268;2022-09-03T14:27:03;1.77;;;1.63;;
1344;SDS011;15375;48.540;9.268;2022-09-03T14:29:33;2.63;;;1.60;;
1344;SDS011;15375;48.540;9.268;2022-09-03T14:40:21;1.00;;;0.90;;
1344;SDS011;15375;48.540;9.268;2022-09-03T14:42:56;0.90;;;0.90;;
1344;SDS011;15375;48.540;9.268;2022-09-03T14:45:49;0.97;;;0.87;;
1344;SDS011;15375;48.540;9.268;2022-09-03T15:00:35;0.93;;;0.90;;
1344;SDS011;15375;48.540;9.268;2022-09-03T15:02:38;0.90;;;0.83;;
1344;SDS011;15375;48.540;9.268;2022-09-03T15:05:09;0.87;;;0.80;;
1344;SDS011;15375;48.540;9.268;2022-09-03T15:10:19;0.67;;;0.67;;
1344;SDS011;15375;48.540;9.268;2022-09-03T15:12:49;0.63;;;0.63;;
1344;SDS011;15375;48.540;9.268;2022-09-03T15:15:21;1.03;;;0.93;;
1344;SDS011;15375;48.540;9.268;2022-09-03T15:20:51;0.97;;;0.97;;
1344;SDS011;15375;48.540;9.268;2022-09-03T15:33:56;1.40;;;1.30;;
1344;SDS011;15375;48.540;9.268;2022-09-03T15:39:27;1.50;;;1.37;;
1344;SDS011;15375;48.540;9.268;2022-09-03T15:42:03;3.73;;;1.97;;
1344;SDS011;15375;48.540;9.268;2022-09-03T15:44:41;5.43;;;2.10;;
1344;SDS011;15375;48.540;9.268;2022-09-03T15:47:12;2.80;;;1.40;;
1344;SDS011;15375;48.540;9.268;2022-09-03T15:50:05;3.13;;;2.00;;
1344;SDS011;15375;48.540;9.268;2022-09-03T15:52:44;2.50;;;1.80;;
1344;SDS011;15375;48.540;9.268;2022-09-03T15:55:38;3.63;;;1.70;;
1344;SDS011;15375;48.540;9.268;2022-09-03T16:06:24;2.13;;;2.00;;
1344;SDS011;15375;48.540;9.268;2022-09-03T16:09:04;1.43;;;1.20;;
1344;SDS011;15375;48.540;9.268;2022-09-03T16:11:50;1.40;;;1.30;;
1344;SDS011;15375;48.540;9.268;2022-09-03T16:14:37;1.13;;;1.03;;
1344;SDS011;15375;48.540;9.268;2022-09-03T16:22:48;2.50;;;1.73;;
1344;SDS011;15375;48.540;9.268;2022-09-03T16:25:24;1.53;;;1.43;;
1344;SDS011;15375;48.540;9.268;2022-09-03T17:06:28;5.73;;;2.70;;
1344;SDS011;15375;48.540;9.268;2022-09-03T17:19:59;2.13;;;1.97;;
1344;SDS011;15375;48.540;9.268;2022-09-03T17:24:54;1.73;;;1.63;;
1344;SDS011;15375;48.540;9.268;2022-09-03T17:33:05;1.93;;;1.70;;
1344;SDS011;15375;48.540;9.268;2022-09-03T17:41:11;2.40;;;2.20;;
1344;SDS011;15375;48.540;9.268;2022-09-03T17:43:57;2.13;;;1.90;;
1344;SDS011;15375;48.540;9.268;2022-09-03T17:49:46;1.93;;;1.80;;
1344;SDS011;15375;48.540;9.268;2022-09-03T17:55:00;2.23;;;1.80;;
1344;SDS011;15375;48.540;9.268;2022-09-03T17:57:56;2.53;;;2.10;;
1344;SDS011;15375;48.540;9.268;2022-09-03T18:03:38;1.93;;;1.80;;
1344;SDS011;15375;48.540;9.268;2022-09-03T18:06:07;2.17;;;2.00;;
1344;SDS011;15375;48.540;9.268;2022-09-03T18:08:45;2.87;;;2.10;;
1344;SDS011;15375;48.540;9.268;2022-09-03T18:11:18;2.20;;;2.00;;
1344;SDS011;15375;48.540;9.268;2022-09-03T18:14:05;1.90;;;1.80;;
1344;SDS011;15375;48.540;9.268;2022-09-03T18:16:32;2.23;;;1.63;;
1344;SDS011;15375;48.540;9.268;2022-09-03T18:19:01;2.90;;;2.10;;
1344;SDS011;15375;48.540;9.268;2022-09-03T18:21:33;2.80;;;2.00;;
1344;SDS011;15375;48.540;9.268;2022-09-03T18:27:55;2.53;;;2.13;;
1344;SDS011;15375;48.540;9.268;2022-09-03T18:30:37;3.10;;;1.80;;
1344;SDS011;15375;48.540;9.268;2022-09-03T18:33:24;2.60;;;2.33;;
1344;SDS011;15375;48.540;9.268;2022-09-03T18:36:09;4.13;;;2.30;;
1344;SDS011;15375;48.540;9.268;2022-09-03T18:38:56;3.10;;;2.20;;
1344;SDS011;15375;48.540;9.268;2022-09-03T18:41:52;2.40;;;2.20;;
1344;SDS011;15375;48.540;9.268;2022-09-03T18:51:22;3.00;;;2.00;;
1344;SDS011;15375;48.540;9.268;2022-09-03T18:57:19;4.60;;;2.47;;
1344;SDS011;15375;48.540;9.268;2022-09-03T19:00:13;3.03;;;2.83;;
1344;SDS011;15375;48.540;9.268;2022-09-03T19:21:38;2.80;;;2.60;;
1344;SDS011;15375;48.540;9.268;2022-09-03T19:24:29;2.27;;;2.07;;
1344;SDS011;15375;48.540;9.268;2022-09-03T19:27:21;2.27;;;2.10;;
1344;SDS011;15375;48.540;9.268;2022-09-03T19:33:10;3.50;;;3.10;;
1344;SDS011;15375;48.540;9.268;2022-09-03T19:39:03;2.33;;;1.67;;
1344;SDS011;15375;48.540;9.268;2022-09-03T19:42:12;3.40;;;1.93;;
1344;SDS011;15375;48.540;9.268;2022-09-03T19:48:14;3.50;;;2.60;;
1344;SDS011;15375;48.540;9.268;2022-09-03T19:51:17;3.30;;;2.53;;
1344;SDS011;15375;48.540;9.268;2022-09-03T19:54:05;4.40;;;3.80;;
1344;SDS011;15375;48.540;9.268;2022-09-03T19:56:51;3.67;;;3.10;;
1344;SDS011;15375;48.540;9.268;2022-09-03T19:59:40;5.30;;;2.60;;
1344;SDS011;15375;48.540;9.268;2022-09-03T20:02:27;2.43;;;2.23;;
1344;SDS011;15375;48.540;9.268;2022-09-03T20:05:18;3.97;;;3.00;;
1344;SDS011;15375;48.540;9.268;2022-09-03T20:08:03;6.70;;;2.40;;
1344;SDS011;15375;48.540;9.268;2022-09-03T20:10:49;2.70;;;2.50;;
1344;SDS011;15375;48.540;9.268;2022-09-03T20:13:18;2.17;;;1.90;;
1344;SDS011;15375;48.540;9.268;2022-09-03T20:31:29;3.80;;;2.57;;
1344;SDS011;15375;48.540;9.268;2022-09-03T20:44:51;4.77;;;2.80;;
1344;SDS011;15375;48.540;9.268;2022-09-03T20:53:14;4.90;;;3.53;;
1344;SDS011;15375;48.540;9.268;2022-09-03T20:55:50;4.70;;;2.10;;
1344;SDS011;15375;48.540;9.268;2022-09-03T20:58:32;4.77;;;2.10;;
1344;SDS011;15375;48.540;9.268;2022-09-03T21:01:08;3.30;;;3.00;;
1344;SDS011;15375;48.540;9.268;2022-09-03T21:06:18;3.60;;;2.60;;
1344;SDS011;15375;48.540;9.268;2022-09-03T21:11:16;3.10;;;2.80;;
1344;SDS011;15375;48.540;9.268;2022-09-03T21:13:57;3.53;;;1.77;;
1344;SDS011;15375;48.540;9.268;2022-09-03T21:16:32;3.90;;;2.17;;
1344;SDS011;15375;48.540;9.268;2022-09-03T21:21:50;11.80;;;3.30;;
1344;SDS011;15375;48.540;9.268;2022-09-03T21:24:36;3.07;;;2.77;;
1344;SDS011;15375;48.540;9.268;2022-09-03T21:27:07;2.63;;;2.43;;
1344;SDS011;15375;48.540;9.268;2022-09-03T21:29:45;3.83;;;2.97;;
1344;SDS011;15375;48.540;9.268;2022-09-03T21:32:22;2.67;;;2.47;;
1344;SDS011;15375;48.540;9.268;2022-09-03T21:37:28;3.00;;;2.80;;
1344;SDS011;15375;48.540;9.268;2022-09-03T21:39:58;3.60;;;3.30;;
1344;SDS011;15375;48.540;9.268;2022-09-03T21:42:34;6.10;;;2.83;;
1344;SDS011;15375;48.540;9.268;2022-09-03T21:45:12;3.13;;;2.83;;
1344;SDS011;15375;48.540;9.268;2022-09-03T21:47:46;2.70;;;2.50;;